Hills Flat, California
Current Conditions -  °F | °C
As of 10:00 AM on Saturday 20 Dec 2014 (Local Time) from KGOO Reporting Station
Overcast Overcast  
Wind Chill: 42°   Ceiling: 100
Heat Index: 45°   Visibility: 0mi
Dew Point: 45°   Wind: 5mph
Humidity: 100%   Direction: 170°S
Pressure: 30.22"   Gusts: NA
Location:  39.2183°N, 120.924°W
Report Text: KGOO 201800Z AUTO 17004KT M1/4SM OVC001 07/07 A3022 RMK AO1
Loading
Personal Weather Stations






























Interactive Weather Map New forecast layout! Learn more

10-Day Weather Forecast

Advertisements
Track Severe Weather on mobile